Time;durP1;ratioP1;P1;durP2;ratioP2;P2;SDS_P1;SDS_P2;PMS_P1;PMS_P2;Temp;Humidity;BMP_temperature;BMP_pressure;BME280_temperature;BME280_humidity;BME280_pressure;Samples;Min_cycle;Max_cycle;Signal;HPM_P1;HPM_P2
2021/03/25 00:01:35;;;;;;;1.40;1.30;;;18.70;61.90;;;;;;5045318;28;20025;-34
2021/03/25 00:04:01;;;;;;;1.20;1.20;;;18.60;61.80;;;;;;5048082;28;20103;-33
2021/03/25 00:06:27;;;;;;;1.30;1.30;;;18.60;61.70;;;;;;5046224;28;20148;-36
2021/03/25 00:08:52;;;;;;;1.30;1.30;;;18.60;61.80;;;;;;5048547;28;20498;-32
2021/03/25 00:11:18;;;;;;;1.08;1.08;;;18.60;61.80;;;;;;5047539;28;20139;-41
2021/03/25 00:13:44;;;;;;;3.80;1.40;;;18.70;61.80;;;;;;5048202;28;20025;-38
2021/03/25 00:16:10;;;;;;;1.27;1.17;;;18.60;61.70;;;;;;5046707;28;20033;-36
2021/03/25 00:18:36;;;;;;;1.30;1.20;;;18.60;61.70;;;;;;5034728;28;20415;-37
2021/03/25 00:21:03;;;;;;;1.15;1.15;;;18.60;61.80;;;;;;5051398;28;20143;-38
2021/03/25 00:23:29;;;;;;;1.17;1.17;;;18.60;62.00;;;;;;5048607;28;20056;-36
2021/03/25 00:25:54;;;;;;;1.30;1.20;;;18.60;61.80;;;;;;5051452;28;20091;-40
2021/03/25 00:28:20;;;;;;;1.67;1.30;;;18.60;61.80;;;;;;5050888;28;20176;-36
2021/03/25 00:30:46;;;;;;;1.45;1.38;;;18.60;61.90;;;;;;5038851;28;20028;-37
2021/03/25 00:33:14;;;;;;;1.33;1.10;;;18.50;62.00;;;;;;5051837;28;20037;-36
2021/03/25 00:35:40;;;;;;;0.95;0.95;;;18.50;61.90;;;;;;5049815;28;20394;-37
2021/03/25 00:38:06;;;;;;;1.48;1.13;;;18.50;61.90;;;;;;5046397;28;20029;-35
2021/03/25 00:40:31;;;;;;;1.20;1.20;;;18.50;62.00;;;;;;5047512;28;20029;-37
2021/03/25 00:42:57;;;;;;;1.45;1.38;;;18.50;61.90;;;;;;5039768;28;20140;-35
2021/03/25 00:45:28;;;;;;;1.00;1.00;;;18.50;61.90;;;;;;5047590;28;20041;-33
2021/03/25 00:47:54;;;;;;;1.20;1.10;;;18.50;61.80;;;;;;5051361;28;20028;-37
2021/03/25 00:50:27;;;;;;;1.42;1.33;;;18.50;61.80;;;;;;5050956;28;20025;-34
2021/03/25 00:52:53;;;;;;;1.10;1.10;;;18.50;61.80;;;;;;5050505;28;20505;-35
2021/03/25 00:55:19;;;;;;;1.52;1.02;;;18.50;61.90;;;;;;5049467;28;20042;-33
2021/03/25 00:57:44;;;;;;;2.60;1.30;;;18.50;61.90;;;;;;5046180;28;20028;-33
2021/03/25 01:00:13;;;;;;;1.30;1.17;;;18.50;62.00;;;;;;5049039;28;20043;-39
2021/03/25 01:02:39;;;;;;;1.10;1.00;;;18.50;62.00;;;;;;5037614;28;20028;-34
2021/03/25 01:05:05;;;;;;;1.67;1.10;;;18.50;61.90;;;;;;5044797;28;20384;-34
2021/03/25 01:07:30;;;;;;;1.15;1.15;;;18.50;61.90;;;;;;5046652;28;20053;-35
2021/03/25 01:09:56;;;;;;;1.38;1.27;;;18.50;62.00;;;;;;5047809;28;20068;-36
2021/03/25 01:12:21;;;;;;;1.10;1.10;;;18.40;61.90;;;;;;5049319;28;20056;-33
2021/03/25 01:14:47;;;;;;;1.13;1.13;;;18.40;61.90;;;;;;5051731;28;20509;-34
2021/03/25 01:17:13;;;;;;;1.27;1.17;;;18.40;62.00;;;;;;5047766;28;20053;-35
2021/03/25 01:19:38;;;;;;;0.90;0.90;;;18.40;62.10;;;;;;5046663;28;20035;-35
2021/03/25 01:22:04;;;;;;;0.77;0.77;;;18.40;62.10;;;;;;5049747;28;20031;-34
2021/03/25 01:24:30;;;;;;;1.10;1.10;;;18.40;62.10;;;;;;5047966;28;20032;-35
2021/03/25 01:26:55;;;;;;;0.95;0.95;;;18.40;62.20;;;;;;5048165;28;20434;-35
2021/03/25 01:29:21;;;;;;;1.33;1.33;;;18.40;62.20;;;;;;5050171;28;20086;-35
2021/03/25 01:31:47;;;;;;;1.08;1.08;;;18.40;62.20;;;;;;5046931;28;20021;-35
2021/03/25 01:34:15;;;;;;;0.98;0.93;;;18.40;62.30;;;;;;5047944;28;20036;-35
2021/03/25 01:36:41;;;;;;;0.70;0.70;;;18.40;62.20;;;;;;5036935;28;20487;-35
2021/03/25 01:39:06;;;;;;;1.17;1.13;;;18.40;62.10;;;;;;5050669;28;20107;-35
2021/03/25 01:41:33;;;;;;;0.90;0.90;;;18.40;62.20;;;;;;5046124;28;20555;-35
2021/03/25 01:43:58;;;;;;;1.17;1.02;;;18.40;62.20;;;;;;5048826;28;20060;-35
2021/03/25 01:46:35;;;;;;;1.05;1.00;;;18.30;62.10;;;;;;5046377;28;20058;-35
2021/03/25 01:49:06;;;;;;;0.80;0.80;;;18.30;62.20;;;;;;5042164;28;20064;-35
2021/03/25 01:51:40;;;;;;;0.80;0.80;;;18.30;62.10;;;;;;5050776;28;20032;-35
2021/03/25 01:54:29;;;;;;;0.80;0.80;;;18.30;62.10;;;;;;5060824;28;20514;-34
2021/03/25 01:57:02;;;;;;;0.98;0.98;;;18.30;62.10;;;;;;5034403;28;20275;-35
2021/03/25 01:59:43;;;;;;;0.95;0.95;;;18.30;62.20;;;;;;5069618;28;20039;-35
2021/03/25 02:02:10;;;;;;;0.90;0.90;;;18.30;62.10;;;;;;5040984;28;20068;-35
2021/03/25 02:04:48;;;;;;;1.35;1.00;;;18.30;62.10;;;;;;5039558;28;20049;-35
2021/03/25 02:07:40;;;;;;;0.93;0.80;;;18.30;62.10;;;;;;5047480;28;20035;-35
2021/03/25 02:10:23;;;;;;;1.20;1.10;;;18.30;62.20;;;;;;5046615;28;20747;-35
2021/03/25 02:12:57;;;;;;;0.68;0.68;;;18.30;62.20;;;;;;5047675;28;20124;-35
2021/03/25 02:15:28;;;;;;;1.00;1.00;;;18.30;62.20;;;;;;5045854;28;20041;-35
2021/03/25 02:18:00;;;;;;;0.80;0.80;;;18.30;62.20;;;;;;5044583;28;20060;-36
2021/03/25 02:20:45;;;;;;;0.85;0.85;;;18.30;62.10;;;;;;5030581;28;20033;-33
2021/03/25 02:23:42;;;;;;;0.85;0.85;;;18.30;62.20;;;;;;5047802;28;20033;-35
2021/03/25 02:26:24;;;;;;;0.82;0.82;;;18.30;62.30;;;;;;5001053;28;20125;-35
2021/03/25 02:29:29;;;;;;;1.35;0.90;;;18.30;62.20;;;;;;4984939;28;20037;-35
2021/03/25 02:31:57;;;;;;;1.00;1.00;;;18.30;62.10;;;;;;4988081;28;20096;-35
2021/03/25 02:34:25;;;;;;;0.80;0.80;;;18.30;62.10;;;;;;4989568;28;20064;-35
2021/03/25 02:37:07;;;;;;;0.70;0.70;;;18.30;62.10;;;;;;4970457;28;20495;-35
2021/03/25 02:39:40;;;;;;;0.70;0.70;;;18.20;62.20;;;;;;4996101;28;20030;-35
2021/03/25 02:42:06;;;;;;;0.70;0.70;;;18.20;62.20;;;;;;4992701;28;20049;-35
2021/03/25 02:44:35;;;;;;;1.33;0.80;;;18.20;62.10;;;;;;4989483;28;20536;-35
2021/03/25 02:47:05;;;;;;;0.63;0.63;;;18.20;62.10;;;;;;4985855;28;20030;-35
2021/03/25 02:49:32;;;;;;;0.65;0.60;;;18.20;62.10;;;;;;4993411;28;20042;-35
2021/03/25 02:52:18;;;;;;;1.48;0.65;;;18.20;62.10;;;;;;4991253;28;20096;-35
2021/03/25 02:54:44;;;;;;;0.80;0.80;;;18.20;62.10;;;;;;4989356;28;20042;-34
2021/03/25 02:57:12;;;;;;;0.90;0.90;;;18.20;62.10;;;;;;4983998;28;20071;-35
2021/03/25 02:59:38;;;;;;;0.80;0.80;;;18.20;62.10;;;;;;4995367;28;20062;-35
2021/03/25 03:02:13;;;;;;;0.80;0.80;;;18.20;62.00;;;;;;5013683;28;20037;-34
2021/03/25 03:04:39;;;;;;;0.70;0.70;;;18.20;62.00;;;;;;5030993;28;20040;-35
2021/03/25 03:07:09;;;;;;;0.70;0.70;;;18.20;62.00;;;;;;5047781;28;20029;-35
2021/03/25 03:09:39;;;;;;;0.50;0.50;;;18.20;62.10;;;;;;5030147;28;20033;-34
2021/03/25 03:12:15;;;;;;;0.70;0.70;;;18.20;62.00;;;;;;5045826;28;20430;-34
2021/03/25 03:14:52;;;;;;;0.60;0.60;;;18.20;62.00;;;;;;5047361;28;20715;-35
2021/03/25 03:17:39;;;;;;;0.63;0.63;;;18.20;62.00;;;;;;5047501;28;20098;-36
2021/03/25 03:20:25;;;;;;;0.55;0.55;;;18.20;62.00;;;;;;5041561;28;20034;-34
2021/03/25 03:22:51;;;;;;;0.65;0.65;;;18.20;62.00;;;;;;5046600;28;20028;-35
2021/03/25 03:25:19;;;;;;;0.68;0.68;;;18.20;62.00;;;;;;5029470;28;20108;-35
2021/03/25 03:27:46;;;;;;;0.68;0.68;;;18.20;61.90;;;;;;5041301;28;20028;-35
2021/03/25 03:30:35;;;;;;;0.60;0.60;;;18.20;61.90;;;;;;5035703;28;20112;-35
2021/03/25 03:33:14;;;;;;;0.57;0.57;;;18.20;61.90;;;;;;5049582;28;20082;-35
2021/03/25 03:36:16;;;;;;;0.60;0.60;;;18.20;61.90;;;;;;5045049;28;20082;-35
2021/03/25 03:38:53;;;;;;;0.63;0.63;;;18.20;61.90;;;;;;4981807;28;20023;-35
2021/03/25 03:41:43;;;;;;;0.70;0.60;;;18.20;61.90;;;;;;4974346;28;20412;-35
2021/03/25 03:44:10;;;;;;;0.65;0.65;;;18.20;61.90;;;;;;4975926;28;20064;-34
2021/03/25 03:46:35;;;;;;;0.60;0.60;;;18.20;61.90;;;;;;4971746;28;20050;-35
2021/03/25 03:49:13;;;;;;;0.60;0.60;;;18.10;61.90;;;;;;4974749;28;20695;-34
2021/03/25 03:51:44;;;;;;;0.50;0.50;;;18.10;61.90;;;;;;4974411;28;20034;-35
2021/03/25 03:54:10;;;;;;;0.50;0.50;;;18.10;61.90;;;;;;4969688;28;20030;-34
2021/03/25 03:56:50;;;;;;;0.50;0.50;;;18.10;61.90;;;;;;4982826;28;20562;-35
2021/03/25 03:59:41;;;;;;;0.70;0.70;;;18.10;61.90;;;;;;4974509;28;20046;-35
2021/03/25 04:02:40;;;;;;;0.65;0.65;;;18.10;61.80;;;;;;4976541;28;20041;-34
2021/03/25 04:05:27;;;;;;;0.60;0.60;;;18.10;61.80;;;;;;4987457;28;20409;-35
2021/03/25 04:08:00;;;;;;;0.55;0.55;;;18.10;61.80;;;;;;4988156;28;20298;-35
2021/03/25 04:10:29;;;;;;;0.50;0.50;;;18.10;61.90;;;;;;4957770;28;20035;-35
2021/03/25 04:12:55;;;;;;;0.50;0.50;;;18.10;61.90;;;;;;5006462;28;20455;-34
2021/03/25 04:15:26;;;;;;;1.88;0.52;;;18.10;61.90;;;;;;5050095;28;20021;-35
2021/03/25 04:18:12;;;;;;;0.70;0.70;;;18.10;61.80;;;;;;5048468;28;20051;-36
2021/03/25 04:20:44;;;;;;;0.60;0.60;;;18.10;61.70;;;;;;5037043;28;20027;-34
2021/03/25 04:23:11;;;;;;;0.75;0.60;;;18.10;61.70;;;;;;5033113;28;20414;-31
2021/03/25 04:25:48;;;;;;;0.68;0.65;;;18.10;62.60;;;;;;5046347;28;20049;-34
2021/03/25 04:28:30;;;;;;;0.60;0.60;;;18.10;61.80;;;;;;5041781;28;20092;-34
2021/03/25 04:30:55;;;;;;;0.50;0.50;;;18.10;61.80;;;;;;5045943;28;20094;-35
2021/03/25 04:33:22;;;;;;;0.80;0.70;;;18.10;61.80;;;;;;5044812;28;20442;-33
2021/03/25 04:35:48;;;;;;;0.70;0.68;;;18.10;61.70;;;;;;5033429;28;20033;-37
2021/03/25 04:38:22;;;;;;;0.47;0.47;;;18.10;61.80;;;;;;5049936;28;20025;-33
2021/03/25 04:40:48;;;;;;;0.60;0.60;;;18.10;61.80;;;;;;5049105;28;20071;-39
2021/03/25 04:43:19;;;;;;;0.60;0.60;;;18.10;61.60;;;;;;5033252;28;20029;-33
2021/03/25 04:45:51;;;;;;;0.60;0.60;;;18.10;61.50;;;;;;5033018;28;20384;-34
2021/03/25 04:48:19;;;;;;;0.50;0.50;;;18.20;61.50;;;;;;5031576;28;20021;-35
2021/03/25 04:51:08;;;;;;;0.40;0.40;;;18.20;61.20;;;;;;5046869;28;20410;-33
2021/03/25 04:53:35;;;;;;;0.47;0.47;;;18.20;61.40;;;;;;5044945;28;20037;-34
2021/03/25 04:56:02;;;;;;;0.47;0.47;;;18.10;61.40;;;;;;5043934;28;20047;-34
2021/03/25 04:58:33;;;;;;;0.73;0.70;;;18.20;61.40;;;;;;5041371;28;20037;-31
2021/03/25 05:01:07;;;;;;;0.50;0.50;;;18.20;61.40;;;;;;5033426;28;20024;-34
2021/03/25 05:03:32;;;;;;;0.50;0.50;;;18.20;61.40;;;;;;5048193;28;20032;-32
2021/03/25 05:05:58;;;;;;;0.40;0.40;;;18.20;61.20;;;;;;5044929;28;20037;-37
2021/03/25 05:08:29;;;;;;;0.55;0.55;;;18.20;61.20;;;;;;5048960;28;20499;-36
2021/03/25 05:11:12;;;;;;;0.40;0.40;;;18.20;61.10;;;;;;5042602;28;20029;-35
2021/03/25 05:13:42;;;;;;;0.47;0.40;;;18.20;61.20;;;;;;5071515;28;20437;-34
2021/03/25 05:16:26;;;;;;;0.55;0.55;;;18.20;61.10;;;;;;5045576;28;20102;-36
2021/03/25 05:19:00;;;;;;;0.40;0.40;;;18.20;61.00;;;;;;5045361;28;20025;-35
2021/03/25 05:21:28;;;;;;;;;;;18.20;61.00;;;;;;5040393;28;20091;-34
2021/03/25 05:24:13;;;;;;;0.43;0.43;;;18.30;60.80;;;;;;5048823;28;20728;-35
2021/03/25 05:26:48;;;;;;;0.40;0.40;;;18.30;60.70;;;;;;5043336;28;20044;-35
2021/03/25 05:29:13;;;;;;;1.63;0.60;;;18.30;60.60;;;;;;5047218;28;20033;-35
2021/03/25 05:31:39;;;;;;;0.40;0.40;;;18.30;60.70;;;;;;5048053;28;20033;-38
2021/03/25 05:34:07;;;;;;;0.60;0.60;;;18.30;60.60;;;;;;5048217;28;20669;-39
2021/03/25 05:36:33;;;;;;;0.40;0.40;;;18.30;60.70;;;;;;5043925;28;20031;-35
2021/03/25 05:38:58;;;;;;;0.70;0.55;;;18.20;60.80;;;;;;5049321;28;20062;-35
2021/03/25 05:41:44;;;;;;;0.40;0.40;;;18.20;60.90;;;;;;5043720;28;20059;-33
2021/03/25 05:44:41;;;;;;;0.30;0.30;;;18.20;60.80;;;;;;5047303;28;20486;-34
2021/03/25 05:47:44;;;;;;;0.47;0.47;;;18.30;60.70;;;;;;5046363;28;20021;-35
2021/03/25 05:50:28;;;;;;;0.30;0.30;;;18.20;60.90;;;;;;5043503;28;20116;-34
2021/03/25 05:52:57;;;;;;;;;;;18.40;60.40;;;;;;5045626;28;20029;-34
2021/03/25 05:55:40;;;;;;;0.38;0.38;;;18.40;60.10;;;;;;5046442;28;19909;-35
2021/03/25 05:58:27;;;;;;;0.45;0.40;;;18.50;60.20;;;;;;5046691;28;20029;-33
2021/03/25 06:00:59;;;;;;;0.45;0.45;;;18.50;60.40;;;;;;5048563;28;20486;-34
2021/03/25 06:03:26;;;;;;;0.55;0.55;;;18.50;60.30;;;;;;5045208;28;20036;-35
2021/03/25 06:05:53;;;;;;;0.50;0.50;;;18.50;60.30;;;;;;5041423;28;20094;-33
2021/03/25 06:08:37;;;;;;;0.70;0.52;;;18.50;60.90;;;;;;5043607;28;20535;-34
2021/03/25 06:11:08;;;;;;;2.38;0.52;;;18.30;64.30;;;;;;5043855;28;20033;-34
2021/03/25 06:13:52;;;;;;;0.73;0.73;;;18.10;66.10;;;;;;5045101;28;20077;-34
2021/03/25 06:17:00;;;;;;;0.52;0.52;;;18.00;66.50;;;;;;5046535;28;20229;-34
2021/03/25 06:19:39;;;;;;;0.50;0.50;;;18.00;66.70;;;;;;5029946;28;20037;-36
2021/03/25 06:22:28;;;;;;;1.67;0.50;;;18.00;65.80;;;;;;5045700;28;20028;-34
2021/03/25 06:25:15;;;;;;;0.50;0.50;;;18.00;66.40;;;;;;5044167;28;20040;-35
2021/03/25 06:28:19;;;;;;;1.02;0.68;;;17.90;66.20;;;;;;5046401;28;20117;-35
2021/03/25 06:31:04;;;;;;;0.60;0.60;;;17.90;66.20;;;;;;5040843;28;20056;-32
2021/03/25 06:33:51;;;;;;;0.60;0.55;;;18.00;65.50;;;;;;5044847;28;20048;-34
2021/03/25 06:36:18;;;;;;;0.60;0.60;;;18.00;65.00;;;;;;5046018;28;20021;-35
2021/03/25 06:38:44;;;;;;;0.82;0.60;;;18.10;64.70;;;;;;5046993;28;20052;-35
2021/03/25 06:41:24;;;;;;;1.08;0.60;;;18.00;65.40;;;;;;5047777;28;20021;-34
2021/03/25 06:44:13;;;;;;;0.40;0.40;;;17.90;65.50;;;;;;5058628;28;20040;-35
2021/03/25 06:46:41;;;;;;;0.50;0.50;;;17.90;65.80;;;;;;5060824;28;20025;-34
2021/03/25 06:49:39;;;;;;;1.20;0.60;;;17.90;65.70;;;;;;5046828;28;20483;-34
2021/03/25 06:52:26;;;;;;;0.63;0.63;;;17.90;65.80;;;;;;5045683;28;20020;-33
2021/03/25 06:54:58;;;;;;;0.68;0.43;;;17.80;65.60;;;;;;5047406;28;20025;-34
2021/03/25 06:57:24;;;;;;;1.15;0.68;;;17.80;65.70;;;;;;5045437;28;20028;-34
2021/03/25 06:59:53;;;;;;;0.60;0.50;;;17.80;65.60;;;;;;5047230;28;20116;-34
2021/03/25 07:02:20;;;;;;;1.70;0.70;;;17.80;65.40;;;;;;5047333;28;20024;-34
2021/03/25 07:04:48;;;;;;;0.60;0.55;;;17.80;65.40;;;;;;5044906;28;20025;-33
2021/03/25 07:07:21;;;;;;;0.50;0.50;;;17.80;65.00;;;;;;5043405;28;20039;-34
2021/03/25 07:09:47;;;;;;;0.30;0.30;;;17.90;64.80;;;;;;5049669;28;20025;-34
2021/03/25 07:12:18;;;;;;;0.40;0.40;;;17.90;64.70;;;;;;5052314;28;20094;-34
2021/03/25 07:14:44;;;;;;;0.32;0.32;;;18.00;64.30;;;;;;5050700;28;20052;-33
2021/03/25 07:17:13;;;;;;;1.98;0.47;;;18.00;64.50;;;;;;5044316;28;20049;-34
2021/03/25 07:19:39;;;;;;;0.47;0.47;;;18.00;64.30;;;;;;5039018;28;20479;-36
2021/03/25 07:22:21;;;;;;;1.10;0.50;;;18.10;64.20;;;;;;5039785;28;20056;-33
2021/03/25 07:24:47;;;;;;;1.15;0.40;;;18.10;64.10;;;;;;5035520;28;20048;-32
2021/03/25 07:27:14;;;;;;;0.73;0.60;;;18.10;67.70;;;;;;5037156;28;20101;-33
2021/03/25 07:29:44;;;;;;;1.15;0.73;;;18.10;65.90;;;;;;5051105;28;20483;-39
2021/03/25 07:32:09;;;;;;;0.82;0.60;;;18.20;65.00;;;;;;5046200;28;20021;-34
2021/03/25 07:34:46;;;;;;;1.33;0.52;;;18.10;65.10;;;;;;5052831;28;20047;-34
2021/03/25 07:37:16;;;;;;;0.80;0.50;;;18.10;64.60;;;;;;5033837;28;20590;-34
2021/03/25 07:39:49;;;;;;;1.00;0.60;;;18.00;65.00;;;;;;5036459;28;20033;-35
2021/03/25 07:42:31;;;;;;;17.80;0.73;;;18.00;65.10;;;;;;5052804;28;20029;-34
2021/03/25 07:45:16;;;;;;;0.85;0.50;;;18.10;64.90;;;;;;4699139;28;10000448;-36
2021/03/25 07:47:41;;;;;;;1.98;0.80;;;18.10;64.60;;;;;;5035364;28;20491;-36
2021/03/25 07:50:28;;;;;;;1.38;0.57;;;18.10;64.70;;;;;;5037337;28;20026;-36
2021/03/25 07:52:54;;;;;;;0.40;0.40;;;18.00;65.00;;;;;;5037280;28;20550;-37
2021/03/25 07:55:21;;;;;;;0.47;0.30;;;18.10;65.10;;;;;;5039184;28;20104;-36
2021/03/25 07:57:48;;;;;;;2.25;0.50;;;18.10;64.70;;;;;;5050217;28;20561;-36
2021/03/25 08:00:35;;;;;;;0.85;0.55;;;18.10;64.50;;;;;;5049902;28;20033;-36
2021/03/25 08:03:20;;;;;;;1.20;0.90;;;18.20;64.30;;;;;;5047186;28;20044;-36
2021/03/25 08:05:50;;;;;;;3.40;0.50;;;18.20;64.30;;;;;;5048413;28;20041;-37
2021/03/25 08:08:19;;;;;;;1.15;0.68;;;18.20;64.10;;;;;;5049189;28;20099;-37
2021/03/25 08:10:46;;;;;;;0.77;0.50;;;18.20;63.90;;;;;;5043272;28;20038;-35
2021/03/25 08:13:16;;;;;;;1.15;0.70;;;18.40;63.60;;;;;;5041532;28;20024;-34
2021/03/25 08:15:43;;;;;;;2.05;0.60;;;18.40;63.30;;;;;;5051650;28;20419;-37
2021/03/25 08:18:46;;;;;;;0.70;0.60;;;18.40;63.50;;;;;;5052172;28;20058;-35
2021/03/25 08:21:39;;;;;;;0.55;0.40;;;18.40;63.60;;;;;;5051135;28;20070;-34
2021/03/25 08:24:14;;;;;;;1.67;0.70;;;18.40;64.00;;;;;;4699652;28;10000008;-33
2021/03/25 08:26:40;;;;;;;1.23;0.50;;;18.40;63.90;;;;;;5036475;28;20851;-34
2021/03/25 08:29:42;;;;;;;0.63;0.47;;;18.40;64.20;;;;;;5045300;28;20021;-34
2021/03/25 08:32:50;;;;;;;0.63;0.45;;;18.40;64.20;;;;;;5049592;28;20025;-34
2021/03/25 08:35:36;;;;;;;0.95;0.50;;;18.30;64.30;;;;;;5036424;28;20404;-34
2021/03/25 08:38:11;;;;;;;2.35;0.95;;;18.30;64.40;;;;;;5036613;28;20032;-34
2021/03/25 08:40:40;;;;;;;0.38;0.38;;;18.30;64.30;;;;;;5041284;28;20460;-35
2021/03/25 08:43:13;;;;;;;0.98;0.80;;;18.30;64.00;;;;;;5049099;28;20036;-34
2021/03/25 08:45:58;;;;;;;1.20;0.70;;;18.30;64.40;;;;;;5019753;28;20503;-34
2021/03/25 08:48:29;;;;;;;0.60;0.50;;;18.30;64.60;;;;;;5046290;28;20032;-34
2021/03/25 08:51:17;;;;;;;1.50;0.60;;;18.30;64.60;;;;;;5035925;28;20171;-33
2021/03/25 08:54:04;;;;;;;2.30;0.75;;;18.30;64.40;;;;;;5050364;28;20029;-34
2021/03/25 08:56:42;;;;;;;1.27;0.77;;;18.30;64.10;;;;;;5047393;28;20029;-33
2021/03/25 08:59:16;;;;;;;0.40;0.40;;;18.40;64.20;;;;;;5042677;28;20033;-33
2021/03/25 09:01:55;;;;;;;1.85;0.70;;;18.40;63.90;;;;;;5042593;28;20029;-34
2021/03/25 09:04:21;;;;;;;1.48;0.30;;;18.50;63.90;;;;;;5051350;28;20045;-34
2021/03/25 09:06:47;;;;;;;0.60;0.40;;;18.50;63.60;;;;;;5050040;28;20069;-33
2021/03/25 09:09:16;;;;;;;0.40;0.40;;;18.60;63.50;;;;;;5022875;28;20027;-34
2021/03/25 09:11:42;;;;;;;1.63;0.40;;;18.60;63.50;;;;;;5051223;28;20025;-34
2021/03/25 09:14:11;;;;;;;0.60;0.50;;;18.60;63.40;;;;;;5051197;28;20422;-33
2021/03/25 09:16:36;;;;;;;0.65;0.40;;;18.60;63.30;;;;;;5046898;28;20033;-34
2021/03/25 09:19:23;;;;;;;1.45;0.50;;;18.60;63.30;;;;;;5036532;28;20025;-34
2021/03/25 09:21:49;;;;;;;0.47;0.40;;;18.60;63.30;;;;;;5037872;28;20029;-38
2021/03/25 09:24:15;;;;;;;0.40;0.40;;;18.70;63.30;;;;;;5021505;28;20108;-34
2021/03/25 09:26:40;;;;;;;0.73;0.60;;;18.70;63.30;;;;;;5050703;28;20068;-34
2021/03/25 09:29:07;;;;;;;1.02;0.70;;;18.70;63.20;;;;;;5043188;28;20504;-37
2021/03/25 09:31:37;;;;;;;0.68;0.50;;;18.70;63.40;;;;;;5041391;28;20096;-34
2021/03/25 09:34:11;;;;;;;0.30;0.30;;;18.70;63.60;;;;;;5046554;28;20394;-33
2021/03/25 09:36:42;;;;;;;0.63;0.60;;;18.70;63.70;;;;;;5047081;28;20068;-35
2021/03/25 09:39:19;;;;;;;1.27;0.50;;;18.70;63.80;;;;;;5042608;28;20033;-40
2021/03/25 09:41:44;;;;;;;0.50;0.50;;;18.80;63.90;;;;;;5046923;28;20037;-32
2021/03/25 09:44:17;;;;;;;0.57;0.57;;;18.80;64.00;;;;;;5045262;28;20115;-33
2021/03/25 09:46:55;;;;;;;0.50;0.50;;;18.90;63.50;;;;;;5047176;28;20519;-33
2021/03/25 09:49:39;;;;;;;0.60;0.60;;;18.90;63.60;;;;;;5046867;28;20060;-40
2021/03/25 09:52:07;;;;;;;0.55;0.47;;;18.90;63.50;;;;;;5047228;28;20553;-37
2021/03/25 09:54:56;;;;;;;0.60;0.60;;;19.00;63.30;;;;;;5045779;28;20033;-33
2021/03/25 09:57:34;;;;;;;1.33;0.40;;;19.00;63.60;;;;;;5039230;28;20045;-35
2021/03/25 10:00:19;;;;;;;0.57;0.43;;;19.20;63.40;;;;;;5032193;28;20064;-33
2021/03/25 10:02:44;;;;;;;0.77;0.73;;;19.20;63.40;;;;;;5046131;28;20467;-34
2021/03/25 10:05:38;;;;;;;0.50;0.50;;;19.30;63.10;;;;;;5049788;28;20101;-36
2021/03/25 10:08:09;;;;;;;0.65;0.50;;;19.40;63.10;;;;;;5045710;28;20116;-34
2021/03/25 10:10:53;;;;;;;0.70;0.68;;;19.40;62.90;;;;;;5049816;28;20102;-33
2021/03/25 10:13:38;;;;;;;;;;;19.40;62.90;;;;;;5037376;28;20068;-35
2021/03/25 10:16:06;;;;;;;0.90;0.80;;;19.30;63.20;;;;;;5024557;28;638556;-33
2021/03/25 10:18:32;;;;;;;1.42;0.63;;;19.30;63.30;;;;;;5047535;28;20063;-32
2021/03/25 10:20:59;;;;;;;1.00;0.90;;;19.40;63.20;;;;;;5047889;28;20025;-31
2021/03/25 10:23:26;;;;;;;1.30;0.90;;;19.50;63.30;;;;;;5037048;28;20100;-35
2021/03/25 10:26:04;;;;;;;1.30;1.00;;;19.50;62.90;;;;;;5041198;28;20143;-36
2021/03/25 10:28:43;;;;;;;1.05;0.75;;;19.50;62.90;;;;;;5047377;28;20052;-32
2021/03/25 10:31:14;;;;;;;1.10;0.90;;;19.60;62.90;;;;;;5029377;28;20479;-33
2021/03/25 10:33:40;;;;;;;0.98;0.85;;;19.60;62.60;;;;;;5033373;28;20060;-34
2021/03/25 10:36:07;;;;;;;1.13;0.73;;;19.60;62.70;;;;;;5044094;28;20052;-34
2021/03/25 10:38:44;;;;;;;0.80;0.80;;;19.60;62.70;;;;;;5038624;28;20061;-35
2021/03/25 10:41:18;;;;;;;1.95;1.00;;;19.60;62.90;;;;;;5046478;28;20032;-33
2021/03/25 10:43:49;;;;;;;0.80;0.80;;;19.50;62.80;;;;;;5053185;28;20399;-35
2021/03/25 10:46:23;;;;;;;0.98;0.90;;;19.50;63.00;;;;;;5054207;28;20036;-34
2021/03/25 10:48:49;;;;;;;1.05;0.90;;;19.50;62.90;;;;;;5037789;28;20507;-39
2021/03/25 10:51:16;;;;;;;0.80;0.80;;;19.50;63.10;;;;;;5037227;28;20061;-33
2021/03/25 10:53:48;;;;;;;0.80;0.80;;;19.40;63.30;;;;;;5052767;28;20585;-33
2021/03/25 10:56:16;;;;;;;1.60;0.80;;;19.40;63.50;;;;;;5054074;28;20487;-34
2021/03/25 10:58:44;;;;;;;1.10;0.70;;;19.40;63.40;;;;;;5054289;28;20027;-34
2021/03/25 11:01:24;;;;;;;0.55;0.55;;;19.40;63.30;;;;;;5053985;28;20036;-33
2021/03/25 11:03:50;;;;;;;0.60;0.60;;;19.50;63.30;;;;;;5052338;28;20061;-33
2021/03/25 11:06:19;;;;;;;0.80;0.80;;;19.50;63.20;;;;;;5054220;28;20079;-34
2021/03/25 11:08:44;;;;;;;0.82;0.70;;;19.60;62.90;;;;;;5054052;28;20100;-34
2021/03/25 11:11:16;;;;;;;0.60;0.60;;;19.60;62.70;;;;;;5044773;28;20112;-33
2021/03/25 11:13:41;;;;;;;0.80;0.80;;;19.60;62.80;;;;;;5044830;28;20087;-33
2021/03/25 11:16:19;;;;;;;0.70;0.70;;;19.80;62.40;;;;;;5053812;28;20029;-39
2021/03/25 11:18:56;;;;;;;1.73;0.70;;;19.80;62.40;;;;;;5049095;28;20108;-35
2021/03/25 11:21:29;;;;;;;1.30;1.00;;;19.90;63.00;;;;;;5026221;28;20029;-36
2021/03/25 11:24:19;;;;;;;1.00;0.80;;;19.90;62.30;;;;;;5045596;28;20063;-36
2021/03/25 11:26:44;;;;;;;0.70;0.70;;;19.90;62.20;;;;;;5052552;28;20665;-34
2021/03/25 11:29:15;;;;;;;2.03;1.05;;;19.90;62.10;;;;;;5044373;28;20030;-33
2021/03/25 11:31:40;;;;;;;;;;;20.00;62.20;;;;;;4698411;28;9999852;-39
2021/03/25 11:34:06;;;;;;;0.75;0.65;;;20.00;62.00;;;;;;5050570;28;19966;-33
2021/03/25 11:36:44;;;;;;;1.00;0.77;;;20.10;61.90;;;;;;5044870;28;20056;-33
2021/03/25 11:39:22;;;;;;;0.90;0.80;;;20.10;62.10;;;;;;5050385;28;20028;-33
2021/03/25 11:41:49;;;;;;;0.80;0.60;;;20.10;61.70;;;;;;5042840;28;20476;-35
2021/03/25 11:44:34;;;;;;;0.60;0.60;;;20.10;61.90;;;;;;5047541;28;20066;-35
2021/03/25 11:47:24;;;;;;;0.82;0.70;;;20.20;62.20;;;;;;5050377;28;20036;-35
2021/03/25 11:49:49;;;;;;;0.93;0.90;;;20.20;61.90;;;;;;5050204;28;20050;-34
2021/03/25 11:52:15;;;;;;;1.00;0.90;;;20.20;61.70;;;;;;5048763;28;20614;-35
2021/03/25 11:54:46;;;;;;;0.63;0.63;;;20.30;62.20;;;;;;5050035;28;20739;-35
2021/03/25 11:57:21;;;;;;;6.03;0.77;;;20.30;62.00;;;;;;5045075;28;20072;-34
2021/03/25 11:59:46;;;;;;;1.00;0.60;;;20.30;61.80;;;;;;5050134;28;20044;-34
2021/03/25 12:02:21;;;;;;;2.42;0.75;;;20.30;61.80;;;;;;5049446;28;20033;-34
2021/03/25 12:04:47;;;;;;;1.00;0.80;;;20.30;61.50;;;;;;5049257;28;20097;-35
2021/03/25 12:07:13;;;;;;;0.98;0.60;;;20.30;61.60;;;;;;5049204;28;20031;-34
2021/03/25 12:10:13;;;;;;;0.52;0.50;;;20.30;61.40;;;;;;5033780;28;20108;-34
2021/03/25 12:12:42;;;;;;;0.60;0.60;;;20.30;61.50;;;;;;5049473;28;20048;-35
2021/03/25 12:15:08;;;;;;;1.42;0.82;;;20.30;61.10;;;;;;5041177;28;20026;-35
2021/03/25 12:17:33;;;;;;;1.00;0.63;;;20.30;61.30;;;;;;5036493;28;20565;-35
2021/03/25 12:20:02;;;;;;;0.50;0.50;;;20.30;61.00;;;;;;5036752;28;20033;-34
2021/03/25 12:22:31;;;;;;;0.60;0.60;;;20.30;60.90;;;;;;5048592;28;20123;-34
2021/03/25 12:24:57;;;;;;;0.82;0.70;;;20.30;60.50;;;;;;5047545;28;20044;-38
2021/03/25 12:27:25;;;;;;;0.73;0.65;;;20.40;60.30;;;;;;5047341;28;20025;-39
2021/03/25 12:29:51;;;;;;;0.93;0.60;;;20.30;60.00;;;;;;5048044;28;20652;-38
2021/03/25 12:32:19;;;;;;;1.70;0.70;;;20.30;60.30;;;;;;5038364;28;21304;-39
2021/03/25 12:34:44;;;;;;;3.85;0.90;;;20.30;60.20;;;;;;5029799;28;20042;-37
2021/03/25 12:37:10;;;;;;;3.10;0.70;;;20.30;60.20;;;;;;5053408;28;20040;-39
2021/03/25 12:39:35;;;;;;;0.50;0.50;;;20.30;60.60;;;;;;5049229;28;20077;-38
2021/03/25 12:42:02;;;;;;;1.13;0.90;;;20.30;60.20;;;;;;5051627;28;20058;-37
2021/03/25 12:44:28;;;;;;;2.05;0.60;;;20.20;60.20;;;;;;5041238;28;20037;-38
2021/03/25 12:46:53;;;;;;;1.92;0.70;;;20.20;60.50;;;;;;5044090;28;20037;-38
2021/03/25 12:49:19;;;;;;;1.33;0.70;;;20.20;60.60;;;;;;5040364;28;20029;-38
2021/03/25 12:51:44;;;;;;;4.65;0.70;;;20.20;60.50;;;;;;5039145;28;20034;-38
2021/03/25 12:54:10;;;;;;;0.65;0.65;;;20.20;60.60;;;;;;5039597;28;20565;-39
2021/03/25 12:56:37;;;;;;;0.60;0.60;;;20.30;60.60;;;;;;5043940;28;20137;-38
2021/03/25 12:59:09;;;;;;;2.85;0.63;;;20.30;60.40;;;;;;5045468;28;20027;-38
2021/03/25 13:01:35;;;;;;;0.50;0.50;;;20.30;60.50;;;;;;5046972;28;20560;-39
2021/03/25 13:04:01;;;;;;;1.33;0.95;;;20.40;60.60;;;;;;5048656;28;20020;-37
2021/03/25 13:06:26;;;;;;;1.00;0.80;;;20.30;60.50;;;;;;5042500;28;20033;-39
2021/03/25 13:08:52;;;;;;;0.80;0.60;;;20.30;60.50;;;;;;5047580;28;20033;-39
2021/03/25 13:11:22;;;;;;;1.20;0.50;;;20.30;60.50;;;;;;5044734;28;20075;-38
2021/03/25 13:13:48;;;;;;;2.03;0.70;;;20.40;60.30;;;;;;5046381;28;20021;-39
2021/03/25 13:16:14;;;;;;;0.93;0.70;;;20.40;60.30;;;;;;5052112;28;20071;-37
2021/03/25 13:18:39;;;;;;;0.73;0.50;;;20.40;60.30;;;;;;5051086;28;20033;-41